createdAt,value
2023-04-28T00:00:38.251Z,11.23
2023-04-28T00:01:38.251Z,11.23
2023-04-28T00:02:38.268Z,11.22
2023-04-28T00:03:38.354Z,11.17
2023-04-28T00:04:38.320Z,11.15
2023-04-28T00:05:38.279Z,11.12
2023-04-28T00:06:38.220Z,11.11
2023-04-28T00:07:38.170Z,11.10
2023-04-28T00:08:39.332Z,11.07
2023-04-28T00:09:38.245Z,11.05
2023-04-28T00:10:38.168Z,10.99
2023-04-28T00:11:38.121Z,11.00
2023-04-28T00:12:38.222Z,10.99
2023-04-28T00:13:38.098Z,10.97
2023-04-28T00:14:38.098Z,10.94
2023-04-28T00:15:38.073Z,10.93
2023-04-28T00:16:38.196Z,10.90
2023-04-28T00:17:38.158Z,10.89
2023-04-28T00:18:38.074Z,10.87
2023-04-28T00:19:38.034Z,10.84
2023-04-28T00:20:38.036Z,10.79
2023-04-28T00:21:38.088Z,10.76
2023-04-28T00:22:38.031Z,10.72
2023-04-28T00:23:37.987Z,10.71
2023-04-28T00:24:37.986Z,10.69
2023-04-28T00:25:37.983Z,10.68
2023-04-28T00:26:37.949Z,10.68
2023-04-28T00:27:37.968Z,10.69
2023-04-28T00:28:37.948Z,10.71
2023-04-28T00:29:37.922Z,10.71
2023-04-28T00:30:37.988Z,10.72
2023-04-28T00:31:37.975Z,10.71
2023-04-28T00:32:37.940Z,10.72
2023-04-28T00:33:37.878Z,10.71
2023-04-28T00:34:37.867Z,10.71
2023-04-28T00:35:37.861Z,10.71
2023-04-28T00:36:37.931Z,10.69
2023-04-28T00:37:37.877Z,10.71
2023-04-28T00:38:37.881Z,10.68
2023-04-28T00:39:37.808Z,10.67
2023-04-28T00:40:37.807Z,10.64
2023-04-28T00:41:37.805Z,10.63
2023-04-28T00:42:37.815Z,10.61
2023-04-28T00:43:37.779Z,10.59
2023-04-28T00:44:39.281Z,10.56
2023-04-28T00:45:37.850Z,10.49
2023-04-28T00:46:37.789Z,10.44
2023-04-28T00:47:37.789Z,10.42
2023-04-28T00:48:37.784Z,10.41
2023-04-28T00:49:37.700Z,10.40
2023-04-28T00:50:37.695Z,10.38
2023-04-28T00:51:37.694Z,10.35
2023-04-28T00:52:37.701Z,10.33
2023-04-28T00:53:37.676Z,10.33
2023-04-28T00:54:37.680Z,10.30
2023-04-28T00:55:37.677Z,10.26
2023-04-28T00:56:37.641Z,10.22
2023-04-28T00:57:37.619Z,10.20
2023-04-28T00:58:37.616Z,10.19
2023-04-28T00:59:37.584Z,10.17
2023-04-28T01:00:37.630Z,10.16
2023-04-28T01:01:37.659Z,10.16
2023-04-28T01:02:38.630Z,10.15
2023-04-28T01:03:37.743Z,10.12
2023-04-28T01:04:37.731Z,10.09
2023-04-28T01:05:37.526Z,10.07
2023-04-28T01:06:37.566Z,10.07
2023-04-28T01:07:37.525Z,10.07
2023-04-28T01:08:37.531Z,10.07
2023-04-28T01:09:37.498Z,10.09
2023-04-28T01:10:37.483Z,10.09
2023-04-28T01:11:37.472Z,10.07
2023-04-28T01:12:37.494Z,10.05
2023-04-28T01:13:37.447Z,9.99
2023-04-28T01:14:37.466Z,9.98
2023-04-28T01:15:39.376Z,9.99
2023-04-28T01:16:37.456Z,9.99
2023-04-28T01:17:37.478Z,9.99
2023-04-28T01:18:37.395Z,10.01
2023-04-28T01:19:37.380Z,10.02
2023-04-28T01:20:37.363Z,9.99
2023-04-28T01:21:37.346Z,10.01
2023-04-28T01:22:37.344Z,10.01
2023-04-28T01:23:37.370Z,9.99
2023-04-28T01:24:37.319Z,9.99
2023-04-28T01:25:37.298Z,9.98
2023-04-28T01:26:37.295Z,10.02
2023-04-28T01:27:37.283Z,10.04
2023-04-28T01:28:37.279Z,10.02
2023-04-28T01:29:37.289Z,10.05
2023-04-28T01:30:37.254Z,10.04
2023-04-28T01:31:37.374Z,10.01
2023-04-28T01:32:37.360Z,9.99
2023-04-28T01:33:37.920Z,9.95
2023-04-28T01:34:37.242Z,9.91
2023-04-28T01:35:38.345Z,9.91
2023-04-28T01:36:38.653Z,9.87
2023-04-28T01:37:37.178Z,9.87
2023-04-28T01:38:37.160Z,9.84
2023-04-28T01:39:37.318Z,9.82
2023-04-28T01:40:37.159Z,9.79
2023-04-28T01:41:37.129Z,9.77
2023-04-28T01:42:37.130Z,9.76
2023-04-28T01:43:37.507Z,9.74
2023-04-28T01:44:37.092Z,9.73
2023-04-28T01:45:37.107Z,9.73
2023-04-28T01:46:37.221Z,9.74
2023-04-28T01:47:37.907Z,9.76
2023-04-28T01:48:37.038Z,9.74
2023-04-28T01:49:37.300Z,9.74
2023-04-28T01:50:37.017Z,9.74
2023-04-28T01:51:38.543Z,9.74
2023-04-28T01:52:37.038Z,9.74
2023-04-28T01:53:37.013Z,9.76
2023-04-28T01:54:37.580Z,9.77
2023-04-28T01:55:37.003Z,9.77
2023-04-28T01:56:37.274Z,9.82
2023-04-28T01:57:36.950Z,9.82
2023-04-28T01:58:36.929Z,9.83
2023-04-28T01:59:36.960Z,9.82
2023-04-28T02:00:36.927Z,9.82
2023-04-28T02:01:36.921Z,9.82
2023-04-28T02:02:37.070Z,9.80
2023-04-28T02:03:38.112Z,9.82
2023-04-28T02:04:36.902Z,9.82
2023-04-28T02:05:37.891Z,9.80
2023-04-28T02:06:36.958Z,9.80
2023-04-28T02:07:36.841Z,9.80
2023-04-28T02:08:36.851Z,9.82
2023-04-28T02:09:36.817Z,9.82
2023-04-28T02:10:36.922Z,9.82
2023-04-28T02:11:36.819Z,9.77
2023-04-28T02:12:36.775Z,9.76
2023-04-28T02:13:36.818Z,9.74
2023-04-28T02:14:36.754Z,9.72
2023-04-28T02:15:36.830Z,9.69
2023-04-28T02:16:36.750Z,9.72
2023-04-28T02:17:36.936Z,9.68
2023-04-28T02:18:36.714Z,9.66
2023-04-28T02:19:36.719Z,9.64
2023-04-28T02:20:36.717Z,9.62
2023-04-28T02:21:36.684Z,9.61
2023-04-28T02:22:38.160Z,9.59
2023-04-28T02:23:36.660Z,9.61
2023-04-28T02:24:37.473Z,9.62
2023-04-28T02:25:36.639Z,9.59
2023-04-28T02:26:36.706Z,9.61
2023-04-28T02:27:37.391Z,9.61
2023-04-28T02:28:36.642Z,9.62
2023-04-28T02:29:36.802Z,9.64
2023-04-28T02:30:37.552Z,9.62
2023-04-28T02:31:36.622Z,9.62
2023-04-28T02:32:36.938Z,9.62
2023-04-28T02:33:38.535Z,9.64
2023-04-28T02:34:36.525Z,9.66
2023-04-28T02:35:37.996Z,9.65
2023-04-28T02:36:36.780Z,9.66
2023-04-28T02:37:36.967Z,9.66
2023-04-28T02:38:37.945Z,9.66
2023-04-28T02:39:36.472Z,9.68
2023-04-28T02:40:36.458Z,9.69
2023-04-28T02:41:36.460Z,9.72
2023-04-28T02:42:36.476Z,9.69
2023-04-28T02:43:37.378Z,9.72
2023-04-28T02:44:37.878Z,9.72
2023-04-28T02:45:37.003Z,9.74
2023-04-28T02:46:38.396Z,9.73
2023-04-28T02:47:36.442Z,9.72
2023-04-28T02:48:36.395Z,9.72
2023-04-28T02:49:36.367Z,9.73
2023-04-28T02:50:37.312Z,9.73
2023-04-28T02:51:36.360Z,9.76
2023-04-28T02:52:36.332Z,9.77
2023-04-28T02:53:36.328Z,9.80
2023-04-28T02:54:36.399Z,9.79
2023-04-28T02:55:36.309Z,9.80
2023-04-28T02:56:36.290Z,9.80
2023-04-28T02:57:36.288Z,9.83
2023-04-28T02:58:37.712Z,9.83
2023-04-28T02:59:36.244Z,9.86
2023-04-28T03:00:36.272Z,9.89
2023-04-28T03:01:36.298Z,9.89
2023-04-28T03:02:36.317Z,9.92
2023-04-28T03:03:36.402Z,9.92
2023-04-28T03:04:36.266Z,9.91
2023-04-28T03:05:36.562Z,9.89
2023-04-28T03:06:36.212Z,9.86
2023-04-28T03:07:36.585Z,9.89
2023-04-28T03:08:36.864Z,9.89
2023-04-28T03:09:36.139Z,9.87
2023-04-28T03:10:36.139Z,9.89
2023-04-28T03:11:36.140Z,9.91
2023-04-28T03:12:36.108Z,9.94
2023-04-28T03:13:36.102Z,9.95
2023-04-28T03:14:36.090Z,9.97
2023-04-28T03:15:36.106Z,9.99
2023-04-28T03:16:36.179Z,10.01
2023-04-28T03:17:36.110Z,10.01
2023-04-28T03:18:36.057Z,10.02
2023-04-28T03:19:36.053Z,10.04
2023-04-28T03:20:36.038Z,10.05
2023-04-28T03:21:35.999Z,10.07
2023-04-28T03:22:36.018Z,10.07
2023-04-28T03:23:35.979Z,10.05
2023-04-28T03:24:35.987Z,10.07
2023-04-28T03:25:35.969Z,10.07
2023-04-28T03:26:35.939Z,10.09
2023-04-28T03:27:35.978Z,10.10
2023-04-28T03:28:36.121Z,10.12
2023-04-28T03:29:35.919Z,10.15
2023-04-28T03:30:35.933Z,10.15
2023-04-28T03:31:35.946Z,10.15
2023-04-28T03:32:35.911Z,10.16
2023-04-28T03:33:35.866Z,10.19
2023-04-28T03:34:35.867Z,10.19
2023-04-28T03:35:35.852Z,10.22
2023-04-28T03:36:35.874Z,10.23
2023-04-28T03:37:35.842Z,10.23
2023-04-28T03:38:35.804Z,10.25
2023-04-28T03:39:35.799Z,10.26
2023-04-28T03:40:35.808Z,10.28
2023-04-28T03:41:35.777Z,10.30
2023-04-28T03:42:35.788Z,10.31
2023-04-28T03:43:35.759Z,10.33
2023-04-28T03:44:36.785Z,10.33
2023-04-28T03:45:35.883Z,10.33
2023-04-28T03:46:35.721Z,10.33
2023-04-28T03:47:35.722Z,10.33
2023-04-28T03:48:35.986Z,10.31
2023-04-28T03:49:35.728Z,10.34
2023-04-28T03:50:35.682Z,10.31
2023-04-28T03:51:35.729Z,10.30
2023-04-28T03:52:35.665Z,10.31
2023-04-28T03:53:35.668Z,10.31
2023-04-28T03:54:35.662Z,10.31
2023-04-28T03:55:35.654Z,10.33
2023-04-28T03:56:35.621Z,10.33
2023-04-28T03:57:35.625Z,10.35
2023-04-28T03:58:35.599Z,10.37
2023-04-28T03:59:35.584Z,10.35
2023-04-28T04:00:35.595Z,10.37
2023-04-28T04:01:35.571Z,10.38
2023-04-28T04:02:35.691Z,10.38
2023-04-28T04:03:35.715Z,10.40
2023-04-28T04:04:35.826Z,10.40
2023-04-28T04:05:35.539Z,10.44
2023-04-28T04:06:35.607Z,10.44
2023-04-28T04:07:35.501Z,10.46
2023-04-28T04:08:35.627Z,10.44
2023-04-28T04:09:35.479Z,10.46
2023-04-28T04:10:35.492Z,10.46
2023-04-28T04:11:35.472Z,10.46
2023-04-28T04:12:36.265Z,10.48
2023-04-28T04:13:35.434Z,10.46
2023-04-28T04:14:35.459Z,10.44
2023-04-28T04:15:35.474Z,10.42
2023-04-28T04:16:35.442Z,10.42
2023-04-28T04:17:35.431Z,10.42
2023-04-28T04:18:35.392Z,10.44
2023-04-28T04:19:35.378Z,10.44
2023-04-28T04:20:35.356Z,10.46
2023-04-28T04:21:35.341Z,10.44
2023-04-28T04:22:35.365Z,10.46
2023-04-28T04:23:35.324Z,10.48
2023-04-28T04:24:35.299Z,10.48
2023-04-28T04:25:35.307Z,10.48
2023-04-28T04:26:35.892Z,10.48
2023-04-28T04:27:35.267Z,10.49
2023-04-28T04:28:36.250Z,10.51
2023-04-28T04:29:36.224Z,10.51
2023-04-28T04:30:35.236Z,10.51
2023-04-28T04:31:35.651Z,10.53
2023-04-28T04:32:35.265Z,10.54
2023-04-28T04:33:35.210Z,10.54
2023-04-28T04:34:35.221Z,10.51
2023-04-28T04:35:35.168Z,10.53
2023-04-28T04:36:35.174Z,10.53
2023-04-28T04:37:35.184Z,10.51
2023-04-28T04:38:35.198Z,10.53
2023-04-28T04:39:35.165Z,10.49
2023-04-28T04:40:35.133Z,10.51
2023-04-28T04:41:36.603Z,10.49
2023-04-28T04:42:35.111Z,10.51
2023-04-28T04:43:35.122Z,10.51
2023-04-28T04:44:35.120Z,10.49
2023-04-28T04:45:35.083Z,10.48
2023-04-28T04:46:36.580Z,10.49
2023-04-28T04:47:35.084Z,10.49
2023-04-28T04:48:35.987Z,10.49
2023-04-28T04:49:35.066Z,10.49
2023-04-28T04:50:35.078Z,10.51
2023-04-28T04:51:35.043Z,10.53
2023-04-28T04:52:35.134Z,10.54
2023-04-28T04:53:34.975Z,10.54
2023-04-28T04:54:34.972Z,10.53
2023-04-28T04:55:34.989Z,10.53
2023-04-28T04:56:37.408Z,10.51
2023-04-28T04:57:34.950Z,10.53
2023-04-28T04:58:35.047Z,10.51
2023-04-28T04:59:34.914Z,10.54
2023-04-28T05:00:34.902Z,10.54
2023-04-28T05:01:34.978Z,10.53
2023-04-28T05:02:35.040Z,10.56
2023-04-28T05:03:35.076Z,10.57
2023-04-28T05:04:34.940Z,10.59
2023-04-28T05:05:35.220Z,10.60
2023-04-28T05:06:35.792Z,10.61
2023-04-28T05:07:34.830Z,10.63
2023-04-28T05:08:34.838Z,10.64
2023-04-28T05:09:34.793Z,10.67
2023-04-28T05:10:35.163Z,10.67
2023-04-28T05:11:34.852Z,10.68
2023-04-28T05:12:34.920Z,10.68
2023-04-28T05:13:35.049Z,10.69
2023-04-28T05:14:34.758Z,10.71
2023-04-28T05:15:34.745Z,10.74
2023-04-28T05:16:35.112Z,10.74
2023-04-28T05:17:34.814Z,10.75
2023-04-28T05:18:34.715Z,10.78
2023-04-28T05:19:34.709Z,10.78
2023-04-28T05:20:34.677Z,10.78
2023-04-28T05:21:34.735Z,10.79
2023-04-28T05:22:36.691Z,10.81
2023-04-28T05:23:34.668Z,10.82
2023-04-28T05:24:34.624Z,10.82
2023-04-28T05:25:34.628Z,10.86
2023-04-28T05:26:35.153Z,10.86
2023-04-28T05:27:35.601Z,10.89
2023-04-28T05:28:34.780Z,10.90
2023-04-28T05:29:34.603Z,10.92
2023-04-28T05:30:34.705Z,10.93
2023-04-28T05:31:34.598Z,10.93
2023-04-28T05:32:34.665Z,10.92
2023-04-28T05:33:34.527Z,10.93
2023-04-28T05:34:34.608Z,10.93
2023-04-28T05:35:34.570Z,10.96
2023-04-28T05:36:34.496Z,10.94
2023-04-28T05:37:34.479Z,10.94
2023-04-28T05:38:34.492Z,10.96
2023-04-28T05:39:34.497Z,10.99
2023-04-28T05:40:34.455Z,10.99
2023-04-28T05:41:34.429Z,10.99
2023-04-28T05:42:34.430Z,10.99
2023-04-28T05:43:34.488Z,10.99
2023-04-28T05:44:34.436Z,10.99
2023-04-28T05:45:34.437Z,10.99
2023-04-28T05:46:34.549Z,10.99
2023-04-28T05:47:34.434Z,11.00
2023-04-28T05:48:34.552Z,11.00
2023-04-28T05:49:34.359Z,10.99
2023-04-28T05:50:34.349Z,11.02
2023-04-28T05:51:34.353Z,11.04
2023-04-28T05:52:34.375Z,11.04
2023-04-28T05:53:35.277Z,11.05
2023-04-28T05:54:34.294Z,11.07
2023-04-28T05:55:34.279Z,11.07
2023-04-28T05:56:34.299Z,11.08
2023-04-28T05:57:42.092Z,11.08
2023-04-28T05:58:36.775Z,11.08
2023-04-28T05:59:34.235Z,11.10
2023-04-28T06:00:34.240Z,11.11
2023-04-28T06:01:34.235Z,11.11
2023-04-28T06:02:34.363Z,11.14
2023-04-28T06:03:34.382Z,11.12
2023-04-28T06:04:34.448Z,11.15
2023-04-28T06:05:34.433Z,11.14
2023-04-28T06:06:34.221Z,11.17
2023-04-28T06:07:34.157Z,11.18
2023-04-28T06:08:34.127Z,11.22
2023-04-28T06:09:34.170Z,11.23
2023-04-28T06:10:34.102Z,11.26
2023-04-28T06:11:34.092Z,11.26
2023-04-28T06:12:34.124Z,11.26
2023-04-28T06:13:34.094Z,11.29
2023-04-28T06:14:34.933Z,11.32
2023-04-28T06:15:34.122Z,11.35
2023-04-28T06:16:34.681Z,11.36
2023-04-28T06:17:35.526Z,11.40
2023-04-28T06:18:35.583Z,11.43
2023-04-28T06:19:34.055Z,11.45
2023-04-28T06:20:34.032Z,11.48
2023-04-28T06:21:34.012Z,11.52
2023-04-28T06:22:33.996Z,11.57
2023-04-28T06:23:33.976Z,11.62
2023-04-28T06:24:33.970Z,11.66
2023-04-28T06:25:34.112Z,11.70
2023-04-28T06:26:33.938Z,11.75
2023-04-28T06:27:33.939Z,11.80
2023-04-28T06:28:35.423Z,11.81
2023-04-28T06:29:33.931Z,11.83
2023-04-28T06:30:33.903Z,11.87
2023-04-28T06:31:34.803Z,11.88
2023-04-28T06:32:33.916Z,11.90
2023-04-28T06:33:33.855Z,11.94
2023-04-28T06:34:34.831Z,11.99
2023-04-28T06:35:33.924Z,11.99
2023-04-28T06:36:35.777Z,11.99
2023-04-28T06:37:34.679Z,11.99
2023-04-28T06:38:35.258Z,12.02
2023-04-28T06:39:35.246Z,12.03
2023-04-28T06:40:35.303Z,12.03
2023-04-28T06:41:34.600Z,12.06
2023-04-28T06:42:34.742Z,12.07
2023-04-28T06:43:33.746Z,12.10
2023-04-28T06:44:36.256Z,12.10
2023-04-28T06:45:33.818Z,12.13
2023-04-28T06:46:33.835Z,12.15
2023-04-28T06:47:33.711Z,12.17
2023-04-28T06:48:35.146Z,12.17
2023-04-28T06:49:33.996Z,12.18
2023-04-28T06:50:34.635Z,12.20
2023-04-28T06:51:33.655Z,12.22
2023-04-28T06:52:38.900Z,12.24
2023-04-28T06:53:34.781Z,12.28
2023-04-28T06:54:33.731Z,12.31
2023-04-28T06:55:34.679Z,12.35
2023-04-28T06:56:35.096Z,12.35
2023-04-28T06:57:34.162Z,12.39
2023-04-28T06:58:33.614Z,12.43
2023-04-28T06:59:33.653Z,12.47
2023-04-28T07:00:33.597Z,12.54
2023-04-28T07:01:33.549Z,12.57
2023-04-28T07:02:33.617Z,12.61
2023-04-28T07:03:33.584Z,12.64
2023-04-28T07:04:34.988Z,12.65
2023-04-28T07:05:34.494Z,12.70
2023-04-28T07:06:33.535Z,12.76
2023-04-28T07:07:33.486Z,12.80
2023-04-28T07:08:34.965Z,12.86
2023-04-28T07:09:33.458Z,12.91
2023-04-28T07:10:34.155Z,12.95
2023-04-28T07:11:33.692Z,13.03
2023-04-28T07:12:33.960Z,13.08
2023-04-28T07:13:34.905Z,13.12
2023-04-28T07:14:34.017Z,13.15
2023-04-28T07:15:34.245Z,13.15
2023-04-28T07:16:33.996Z,13.20
2023-04-28T07:17:33.398Z,13.28
2023-04-28T07:18:33.366Z,13.33
2023-04-28T07:19:33.339Z,13.35
2023-04-28T07:20:33.384Z,13.37
2023-04-28T07:21:33.357Z,13.33
2023-04-28T07:22:33.954Z,13.30
2023-04-28T07:23:33.561Z,13.25
2023-04-28T07:24:33.354Z,13.22
2023-04-28T07:25:33.305Z,13.20
2023-04-28T07:26:33.919Z,13.19
2023-04-28T07:27:33.581Z,13.20
2023-04-28T07:28:33.442Z,13.22
2023-04-28T07:29:33.292Z,13.25
2023-04-28T07:30:33.288Z,13.28
2023-04-28T07:31:35.317Z,13.30
2023-04-28T07:32:33.768Z,13.31
2023-04-28T07:33:33.294Z,13.35
2023-04-28T07:34:33.223Z,13.33
2023-04-28T07:35:33.178Z,13.37
2023-04-28T07:36:33.185Z,13.39
2023-04-28T07:37:33.274Z,13.39
2023-04-28T07:38:33.208Z,13.46
2023-04-28T07:39:33.135Z,13.49
2023-04-28T07:40:33.149Z,13.50
2023-04-28T07:41:33.106Z,13.52
2023-04-28T07:42:33.110Z,13.50
2023-04-28T07:43:33.116Z,13.47
2023-04-28T07:44:33.071Z,13.47
2023-04-28T07:45:33.194Z,13.47
2023-04-28T07:46:33.143Z,13.44
2023-04-28T07:47:33.114Z,13.42
2023-04-28T07:48:33.103Z,13.44
2023-04-28T07:49:33.038Z,13.42
2023-04-28T07:50:33.141Z,13.46
2023-04-28T07:51:32.998Z,13.44
2023-04-28T07:52:32.994Z,13.49
2023-04-28T07:53:32.966Z,13.52
2023-04-28T07:54:34.161Z,13.56
2023-04-28T07:55:32.956Z,13.59
2023-04-28T07:56:32.972Z,13.60
2023-04-28T07:57:32.962Z,13.63
2023-04-28T07:58:32.926Z,13.67
2023-04-28T07:59:32.917Z,13.71
2023-04-28T08:00:32.888Z,13.72
2023-04-28T08:01:32.894Z,13.74
2023-04-28T08:02:34.646Z,13.75
2023-04-28T08:03:33.059Z,13.77
2023-04-28T08:04:33.094Z,13.77
2023-04-28T08:05:33.158Z,13.79
2023-04-28T08:06:32.829Z,13.79
2023-04-28T08:07:32.817Z,13.81
2023-04-28T08:08:32.810Z,13.85
2023-04-28T08:09:32.779Z,13.86
2023-04-28T08:10:32.800Z,13.90
2023-04-28T08:11:32.760Z,13.92
2023-04-28T08:12:33.723Z,13.97
2023-04-28T08:13:32.740Z,14.00
2023-04-28T08:14:32.777Z,14.03
2023-04-28T08:15:32.736Z,14.04
2023-04-28T08:16:34.188Z,14.07
2023-04-28T08:17:32.728Z,14.05
2023-04-28T08:18:32.710Z,14.04
2023-04-28T08:19:32.718Z,14.03
2023-04-28T08:20:32.763Z,14.04
2023-04-28T08:21:32.659Z,14.05
2023-04-28T08:22:32.678Z,14.08
2023-04-28T08:23:32.649Z,14.12
2023-04-28T08:24:32.624Z,14.14
2023-04-28T08:25:32.646Z,14.12
2023-04-28T08:26:32.591Z,14.12
2023-04-28T08:27:32.593Z,14.12
2023-04-28T08:28:32.584Z,14.14
2023-04-28T08:29:32.591Z,14.12
2023-04-28T08:30:33.994Z,14.12
2023-04-28T08:31:32.619Z,14.15
2023-04-28T08:32:32.567Z,14.20
2023-04-28T08:33:34.034Z,14.23
2023-04-28T08:34:32.526Z,14.25
2023-04-28T08:35:32.503Z,14.28
2023-04-28T08:36:32.544Z,14.28
2023-04-28T08:37:32.488Z,14.30
2023-04-28T08:38:33.983Z,14.33
2023-04-28T08:39:32.444Z,14.37
2023-04-28T08:40:32.450Z,14.43
2023-04-28T08:41:32.446Z,14.47
2023-04-28T08:42:33.870Z,14.50
2023-04-28T08:43:32.425Z,14.54
2023-04-28T08:44:32.406Z,14.62
2023-04-28T08:45:32.373Z,14.69
2023-04-28T08:46:32.386Z,14.77
2023-04-28T08:47:32.385Z,14.77
2023-04-28T08:48:32.385Z,14.77
2023-04-28T08:49:32.360Z,14.78
2023-04-28T08:50:32.339Z,14.73
2023-04-28T08:51:32.323Z,14.77
2023-04-28T08:52:33.270Z,14.77
2023-04-28T08:53:32.398Z,14.79
2023-04-28T08:54:32.908Z,14.82
2023-04-28T08:55:32.306Z,14.85
2023-04-28T08:56:32.274Z,14.91
2023-04-28T08:57:32.263Z,14.91
2023-04-28T08:58:32.257Z,14.92
2023-04-28T08:59:32.277Z,14.86
2023-04-28T09:00:32.212Z,14.82
2023-04-28T09:01:32.407Z,14.79
2023-04-28T09:02:32.333Z,14.81
2023-04-28T09:03:32.411Z,14.81
2023-04-28T09:04:32.271Z,14.79
2023-04-28T09:05:32.337Z,14.77
2023-04-28T09:06:32.174Z,14.69
2023-04-28T09:07:32.187Z,14.66
2023-04-28T09:08:32.321Z,14.65
2023-04-28T09:09:36.238Z,14.62
2023-04-28T09:10:32.142Z,14.60
2023-04-28T09:11:32.119Z,14.60
2023-04-28T09:12:32.101Z,14.62
2023-04-28T09:13:32.133Z,14.62
2023-04-28T09:14:32.057Z,14.65
2023-04-28T09:15:33.966Z,14.69
2023-04-28T09:16:32.105Z,14.72
2023-04-28T09:17:32.098Z,14.77
2023-04-28T09:18:32.038Z,14.77
2023-04-28T09:19:32.000Z,14.77
2023-04-28T09:20:32.060Z,14.79
2023-04-28T09:21:31.990Z,14.85
2023-04-28T09:22:32.027Z,14.86
2023-04-28T09:23:31.964Z,14.88
2023-04-28T09:24:31.977Z,14.86
2023-04-28T09:25:31.948Z,14.89
2023-04-28T09:26:31.965Z,14.89
2023-04-28T09:27:32.873Z,14.89
2023-04-28T09:28:31.909Z,14.94
2023-04-28T09:29:31.900Z,14.97
2023-04-28T09:30:31.923Z,14.97
2023-04-28T09:31:31.913Z,14.92
2023-04-28T09:32:32.113Z,14.86
2023-04-28T09:33:31.862Z,14.82
2023-04-28T09:34:31.851Z,14.79
2023-04-28T09:35:31.854Z,14.81
2023-04-28T09:36:31.869Z,14.82
2023-04-28T09:37:31.909Z,14.85
2023-04-28T09:38:31.842Z,14.88
2023-04-28T09:39:31.839Z,14.92
2023-04-28T09:40:31.804Z,14.97
2023-04-28T09:41:31.778Z,14.96
2023-04-28T09:42:31.783Z,14.96
2023-04-28T09:43:31.919Z,14.94
2023-04-28T09:44:32.736Z,14.96
2023-04-28T09:45:33.931Z,14.96
2023-04-28T09:46:31.810Z,14.97
2023-04-28T09:47:31.772Z,14.99
2023-04-28T09:48:31.704Z,15.02
2023-04-28T09:49:31.686Z,15.04
2023-04-28T09:50:31.682Z,15.07
2023-04-28T09:51:31.721Z,15.14
2023-04-28T09:52:31.654Z,15.18
2023-04-28T09:53:31.694Z,15.21
2023-04-28T09:54:31.657Z,15.27
2023-04-28T09:55:31.649Z,15.28
2023-04-28T09:56:31.617Z,15.31
2023-04-28T09:57:31.626Z,15.33
2023-04-28T09:58:31.599Z,15.35
2023-04-28T09:59:31.612Z,15.37
2023-04-28T10:00:31.577Z,15.36
2023-04-28T10:01:31.631Z,15.36
2023-04-28T10:02:43.234Z,15.36
2023-04-28T10:03:32.866Z,15.39
2023-04-28T10:04:31.862Z,15.37
2023-04-28T10:05:31.753Z,15.36
2023-04-28T10:06:31.528Z,15.33
2023-04-28T10:07:31.499Z,15.28
2023-04-28T10:08:31.483Z,15.27
2023-04-28T10:09:31.513Z,15.25
2023-04-28T10:10:31.473Z,15.24
2023-04-28T10:11:32.414Z,15.21
2023-04-28T10:12:31.793Z,15.18
2023-04-28T10:13:31.445Z,15.17
2023-04-28T10:14:31.444Z,15.17
2023-04-28T10:15:31.494Z,15.14
2023-04-28T10:16:32.265Z,15.14
2023-04-28T10:17:32.089Z,15.14
2023-04-28T10:18:31.400Z,15.10
2023-04-28T10:19:31.396Z,15.09
2023-04-28T10:20:31.381Z,15.07
2023-04-28T10:21:31.374Z,15.06
2023-04-28T10:22:31.370Z,15.06
2023-04-28T10:23:32.110Z,15.03
2023-04-28T10:24:31.322Z,15.00
2023-04-28T10:25:31.335Z,14.99
2023-04-28T10:26:31.339Z,15.00
2023-04-28T10:27:31.289Z,15.00
2023-04-28T10:28:31.372Z,15.00
2023-04-28T10:29:31.249Z,14.99
2023-04-28T10:30:31.378Z,14.99
2023-04-28T10:31:32.722Z,14.99
2023-04-28T10:32:31.465Z,15.03
2023-04-28T10:33:31.214Z,15.03
2023-04-28T10:34:31.507Z,15.07
2023-04-28T10:35:31.190Z,15.07
2023-04-28T10:36:36.328Z,15.10
2023-04-28T10:37:31.169Z,15.09
2023-04-28T10:38:31.153Z,15.09
2023-04-28T10:39:31.144Z,15.07
2023-04-28T10:40:31.141Z,15.06
2023-04-28T10:41:31.118Z,15.04
2023-04-28T10:42:31.123Z,15.04
2023-04-28T10:43:31.232Z,15.04
2023-04-28T10:44:31.088Z,15.04
2023-04-28T10:45:31.087Z,15.04
2023-04-28T10:46:32.036Z,15.03
2023-04-28T10:47:31.098Z,15.04
2023-04-28T10:48:31.061Z,15.06
2023-04-28T10:49:31.034Z,15.06
2023-04-28T10:50:38.880Z,15.04
2023-04-28T10:51:32.090Z,15.04
2023-04-28T10:52:31.980Z,15.06
2023-04-28T10:53:30.979Z,15.09
2023-04-28T10:54:31.150Z,15.09
2023-04-28T10:55:30.962Z,15.07
2023-04-28T10:56:30.985Z,15.04
2023-04-28T10:57:32.178Z,15.03
2023-04-28T10:58:30.930Z,15.02
2023-04-28T10:59:30.917Z,15.02
2023-04-28T11:00:30.898Z,15.00
2023-04-28T11:01:30.995Z,15.02
2023-04-28T11:02:31.054Z,15.02
2023-04-28T11:03:31.213Z,15.00
2023-04-28T11:04:30.901Z,14.97
2023-04-28T11:05:30.851Z,14.94
2023-04-28T11:06:30.826Z,14.94
2023-04-28T11:07:30.837Z,14.94
2023-04-28T11:08:30.857Z,14.96
2023-04-28T11:09:30.811Z,14.99
2023-04-28T11:10:30.784Z,14.99
2023-04-28T11:11:30.814Z,14.99
2023-04-28T11:12:30.777Z,14.96
2023-04-28T11:13:31.752Z,14.97
2023-04-28T11:14:34.732Z,14.97
2023-04-28T11:15:30.775Z,14.97
2023-04-28T11:16:30.821Z,14.99
2023-04-28T11:17:30.780Z,14.97
2023-04-28T11:18:31.747Z,14.99
2023-04-28T11:19:30.792Z,14.96
2023-04-28T11:20:30.672Z,14.97
2023-04-28T11:21:30.683Z,15.02
2023-04-28T11:22:30.653Z,15.03
2023-04-28T11:23:30.805Z,15.06
2023-04-28T11:24:30.634Z,15.06
2023-04-28T11:25:30.657Z,15.07
2023-04-28T11:26:30.606Z,15.10
2023-04-28T11:27:30.609Z,15.11
2023-04-28T11:28:30.603Z,15.14
2023-04-28T11:29:30.616Z,15.18
2023-04-28T11:30:30.604Z,15.19
2023-04-28T11:31:30.579Z,15.22
2023-04-28T11:32:30.604Z,15.19
2023-04-28T11:33:30.563Z,15.21
2023-04-28T11:34:30.527Z,15.21
2023-04-28T11:35:30.535Z,15.19
2023-04-28T11:36:30.501Z,15.22
2023-04-28T11:37:30.533Z,15.22
2023-04-28T11:38:30.473Z,15.21
2023-04-28T11:39:30.475Z,15.22
2023-04-28T11:40:31.434Z,15.24
2023-04-28T11:41:30.458Z,15.22
2023-04-28T11:42:30.456Z,15.21
2023-04-28T11:43:43.718Z,15.19
2023-04-28T11:44:31.396Z,15.19
2023-04-28T11:45:30.451Z,15.19
2023-04-28T11:46:30.534Z,15.19
2023-04-28T11:47:30.498Z,15.18
2023-04-28T11:48:30.406Z,15.17
2023-04-28T11:49:31.840Z,15.17
2023-04-28T11:50:30.351Z,15.17
2023-04-28T11:51:30.364Z,15.18
2023-04-28T11:52:30.376Z,15.19
2023-04-28T11:53:30.351Z,15.18
2023-04-28T11:54:31.837Z,15.19
2023-04-28T11:55:30.314Z,15.21
2023-04-28T11:56:30.291Z,15.21
2023-04-28T11:57:30.291Z,15.21
2023-04-28T11:58:30.402Z,15.24
2023-04-28T11:59:30.263Z,15.27
2023-04-28T12:00:30.241Z,15.27
2023-04-28T12:01:30.225Z,15.28
2023-04-28T12:02:30.414Z,15.31
2023-04-28T12:03:30.316Z,15.36
2023-04-28T12:04:30.203Z,15.39
2023-04-28T12:05:30.234Z,15.44
2023-04-28T12:06:30.172Z,15.46
2023-04-28T12:07:30.261Z,15.51
2023-04-28T12:08:30.181Z,15.55
2023-04-28T12:09:30.148Z,15.57
2023-04-28T12:10:30.153Z,15.55
2023-04-28T12:11:30.136Z,15.55
2023-04-28T12:12:45.311Z,15.57
2023-04-28T12:13:31.118Z,15.59
2023-04-28T12:14:30.100Z,15.64
2023-04-28T12:15:30.122Z,15.70
2023-04-28T12:16:31.264Z,15.75
2023-04-28T12:17:30.959Z,15.79
2023-04-28T12:18:30.048Z,15.82
2023-04-28T12:19:30.047Z,15.83
2023-04-28T12:20:30.051Z,15.84
2023-04-28T12:21:30.051Z,15.84
2023-04-28T12:22:29.991Z,15.86
2023-04-28T12:23:29.995Z,15.92
2023-04-28T12:24:29.993Z,15.94
2023-04-28T12:25:31.482Z,16.01
2023-04-28T12:26:29.954Z,16.02
2023-04-28T12:27:30.020Z,16.01
2023-04-28T12:28:29.933Z,16.04
2023-04-28T12:29:29.913Z,16.08
2023-04-28T12:30:29.914Z,16.13
2023-04-28T12:31:29.939Z,16.20
2023-04-28T12:32:29.937Z,16.28
2023-04-28T12:33:29.981Z,16.36
2023-04-28T12:34:30.727Z,16.43
2023-04-28T12:35:29.885Z,16.51
2023-04-28T12:36:29.839Z,16.56
2023-04-28T12:37:29.846Z,16.57
2023-04-28T12:38:29.837Z,16.65
2023-04-28T12:39:29.874Z,16.71
2023-04-28T12:40:29.817Z,16.75
2023-04-28T12:41:29.788Z,16.83
2023-04-28T12:42:29.812Z,16.90
2023-04-28T12:43:29.844Z,16.97
2023-04-28T12:44:29.787Z,17.06
2023-04-28T12:45:29.745Z,17.15
2023-04-28T12:46:29.828Z,17.19
2023-04-28T12:47:29.792Z,17.15
2023-04-28T12:48:29.712Z,17.14
2023-04-28T12:49:29.735Z,17.08
2023-04-28T12:50:29.682Z,17.04
2023-04-28T12:51:29.703Z,17.01
2023-04-28T12:52:29.730Z,16.99
2023-04-28T12:53:29.646Z,16.99
2023-04-28T12:54:30.045Z,17.02
2023-04-28T12:55:31.106Z,17.12
2023-04-28T12:56:31.159Z,17.20